TimeEST,TemperatureF,Dew PointF,Humidity,Sea Level PressureIn,VisibilityMPH,Wind Direction,Wind SpeedMPH,Gust SpeedMPH,PrecipitationIn,Events,Conditions,WindDirDegrees,DateUTC
12:38 AM,26.6,23.0,86,30.12,10.0,NE,9.2,-,N/A,,Overcast,40,2013-03-02 05:38:00
12:55 AM,26.6,21.4,81,30.12,10.0,NNE,10.4,-,N/A,,Overcast,20,2013-03-02 05:55:00
1:14 AM,26.6,21.2,80,30.12,10.0,NNE,11.5,-,N/A,,Overcast,20,2013-03-02 06:14:00
1:34 AM,24.8,21.2,86,30.12,10.0,NE,11.5,-,N/A,,Overcast,40,2013-03-02 06:34:00
1:45 AM,24.8,19.4,80,30.12,10.0,NNE,10.4,-,N/A,,Overcast,30,2013-03-02 06:45:00
1:55 AM,25.3,20.3,81,30.12,10.0,NNE,12.7,-,N/A,,Overcast,30,2013-03-02 06:55:00
2:31 AM,24.8,19.4,80,30.12,10.0,North,6.9,-,N/A,,Overcast,10,2013-03-02 07:31:00
2:40 AM,24.8,19.4,80,30.12,10.0,North,9.2,-,N/A,,Overcast,10,2013-03-02 07:40:00
2:55 AM,25.2,18.9,77,30.12,10.0,North,8.1,-,N/A,,Overcast,360,2013-03-02 07:55:00
3:16 AM,24.8,19.4,80,30.12,10.0,NE,10.4,-,N/A,,Overcast,40,2013-03-02 08:16:00
3:49 AM,24.8,19.4,80,30.11,10.0,NNE,6.9,-,N/A,,Overcast,20,2013-03-02 08:49:00
3:55 AM,24.8,19.2,79,30.11,10.0,NNE,9.2,-,N/A,,Overcast,30,2013-03-02 08:55:00
4:55 AM,25.3,19.0,77,30.10,10.0,North,4.6,-,N/A,,Overcast,10,2013-03-02 09:55:00
5:55 AM,25.5,18.9,76,30.10,10.0,North,4.6,-,N/A,,Overcast,360,2013-03-02 10:55:00
6:55 AM,25.9,18.9,75,30.10,10.0,North,8.1,-,N/A,,Overcast,350,2013-03-02 11:55:00
7:55 AM,26.4,17.4,69,30.12,10.0,North,11.5,-,N/A,,Overcast,360,2013-03-02 12:55:00
8:55 AM,26.8,17.6,68,30.13,10.0,North,9.2,-,N/A,,Overcast,10,2013-03-02 13:55:00
10:30 AM,26.6,17.6,69,30.09,10.0,North,11.5,-,N/A,,Overcast,350,2013-03-02 15:30:00
10:55 AM,27.9,17.8,66,30.13,10.0,NNW,11.5,-,N/A,,Overcast,340,2013-03-02 15:55:00
11:36 AM,28.4,17.6,64,30.13,10.0,North,8.1,-,N/A,,Overcast,360,2013-03-02 16:36:00
11:48 AM,28.4,17.6,64,30.13,10.0,North,11.5,-,N/A,,Overcast,360,2013-03-02 16:48:00
11:55 AM,28.9,18.7,66,30.13,10.0,North,10.4,-,N/A,,Overcast,360,2013-03-02 16:55:00
1:25 PM,30.2,19.4,64,30.11,10.0,NNW,10.4,-,N/A,,Overcast,330,2013-03-02 18:25:00
1:55 PM,31.3,18.9,60,30.10,10.0,NNW,11.5,16.1,N/A,,Overcast,330,2013-03-02 18:55:00
2:55 PM,32.4,18.7,57,30.09,10.0,NW,10.4,-,N/A,,Mostly Cloudy,310,2013-03-02 19:55:00
4:55 PM,31.6,22.6,69,30.09,10.0,WNW,13.8,-,N/A,,Overcast,300,2013-03-02 21:55:00
5:55 PM,30.7,23.5,75,30.10,10.0,WNW,13.8,-,N/A,,Overcast,300,2013-03-02 22:55:00
6:55 PM,29.3,19.0,66,30.11,10.0,NNW,13.8,-,N/A,,Overcast,340,2013-03-02 23:55:00
7:55 PM,28.6,18.1,65,30.12,10.0,North,12.7,20.7,N/A,,Overcast,350,2013-03-03 00:55:00
8:55 PM,28.4,19.0,68,30.12,10.0,NNW,10.4,-,N/A,,Overcast,340,2013-03-03 01:55:00
9:19 PM,28.4,19.4,69,30.12,10.0,NNW,11.5,-,N/A,Snow,Light Snow,340,2013-03-03 02:19:00
9:38 PM,28.4,19.4,69,30.12,10.0,NNW,10.4,-,N/A,,Overcast,340,2013-03-03 02:38:00
9:55 PM,28.6,20.3,71,30.12,10.0,NNW,9.2,-,0.00,,Overcast,340,2013-03-03 02:55:00
9:56 PM,28.4,21.2,74,30.12,10.0,NNW,9.2,-,N/A,,Overcast,340,2013-03-03 02:56:00
10:13 PM,28.4,19.4,69,30.12,10.0,NNW,8.1,-,N/A,Snow,Light Snow,330,2013-03-03 03:13:00
10:22 PM,28.4,19.4,69,30.12,10.0,WNW,10.4,-,N/A,,Overcast,300,2013-03-03 03:22:00
10:27 PM,28.4,21.2,74,30.12,10.0,NW,11.5,-,N/A,Snow,Light Snow,320,2013-03-03 03:27:00
10:55 PM,27.7,24.1,86,30.12,10.0,WNW,10.4,-,0.00,Snow,Light Snow,300,2013-03-03 03:55:00
11:14 PM,28.4,23.0,80,30.12,10.0,WNW,9.2,-,N/A,,Overcast,300,2013-03-03 04:14:00
11:16 PM,28.4,23.0,80,30.12,10.0,WNW,10.4,-,N/A,,Overcast,300,2013-03-03 04:16:00
11:22 PM,28.4,23.0,80,30.12,10.0,WNW,9.2,-,N/A,,Overcast,300,2013-03-03 04:22:00
11:34 PM,28.4,23.0,80,30.12,10.0,NW,10.4,-,N/A,,Overcast,310,2013-03-03 04:34:00
11:37 PM,28.4,21.2,74,30.12,10.0,NW,13.8,-,N/A,,Overcast,310,2013-03-03 04:37:00
11:55 PM,27.5,21.4,78,30.11,10.0,NW,15.0,-,0.00,,Overcast,310,2013-03-03 04:55:00
11:57 PM,28.4,21.2,74,30.11,10.0,NW,13.8,-,N/A,,Overcast,310,2013-03-03 04:57:00